Time;durP1;ratioP1;P1;durP2;ratioP2;P2;SDS_P1;SDS_P2;PMS_P1;PMS_P2;Temp;Humidity;BMP_temperature;BMP_pressure;BME280_temperature;BME280_humidity;BME280_pressure;Samples;Min_cycle;Max_cycle;Signal;HPM_P1;HPM_P2
2023/08/25 00:00:38;;;;;;;0.40;0.40;;;20.40;99.90;;;;;;5116939;28;20032;-78
2023/08/25 00:03:07;;;;;;;0.40;0.40;;;20.40;99.90;;;;;;5116933;28;20044;-77
2023/08/25 00:05:39;;;;;;;0.43;0.38;;;20.30;99.90;;;;;;5116984;28;20079;-77
2023/08/25 00:08:06;;;;;;;0.30;0.30;;;20.30;99.90;;;;;;5116692;28;20498;-77
2023/08/25 00:10:32;;;;;;;;;;;20.30;99.90;;;;;;5116923;28;20040;-77
2023/08/25 00:12:58;;;;;;;0.40;0.40;;;20.20;99.90;;;;;;5116500;28;19919;-76
2023/08/25 00:15:23;;;;;;;0.40;0.40;;;20.20;99.90;;;;;;5116531;28;20480;-77
2023/08/25 00:17:55;;;;;;;0.57;0.30;;;20.20;99.90;;;;;;5116786;28;20035;-76
2023/08/25 00:20:21;;;;;;;0.20;0.20;;;20.20;99.90;;;;;;5098384;28;20425;-77
2023/08/25 00:22:47;;;;;;;0.60;0.60;;;20.10;99.90;;;;;;5116970;28;20047;-76
2023/08/25 00:25:13;;;;;;;0.40;0.40;;;20.10;99.90;;;;;;5098284;28;20285;-77
2023/08/25 00:27:38;;;;;;;0.30;0.30;;;20.10;99.90;;;;;;5115849;28;20048;-76
2023/08/25 00:30:06;;;;;;;0.73;0.30;;;20.20;99.90;;;;;;5116166;28;20055;-76
2023/08/25 00:32:32;;;;;;;0.32;0.32;;;20.10;99.90;;;;;;5116426;28;20043;-77
2023/08/25 00:34:58;;;;;;;0.30;0.30;;;20.00;99.90;;;;;;5116446;28;20032;-76
2023/08/25 00:37:23;;;;;;;0.30;0.30;;;20.00;99.90;;;;;;5116698;28;20120;-76
2023/08/25 00:39:49;;;;;;;0.33;0.33;;;20.00;99.90;;;;;;5116343;28;20048;-76
2023/08/25 00:42:14;;;;;;;0.63;0.60;;;19.90;99.90;;;;;;5116029;28;20048;-76
2023/08/25 00:44:40;;;;;;;0.43;0.40;;;19.90;99.90;;;;;;5116181;28;20340;-77
2023/08/25 00:47:06;;;;;;;0.23;0.23;;;19.90;99.90;;;;;;5115169;28;20039;-77
2023/08/25 00:49:33;;;;;;;0.40;0.30;;;19.80;99.90;;;;;;5116047;28;20114;-77
2023/08/25 00:51:59;;;;;;;0.50;0.50;;;19.80;99.90;;;;;;5116129;28;20073;-77
2023/08/25 00:54:27;;;;;;;;;;;19.80;99.90;;;;;;5116514;28;20047;-76
2023/08/25 00:56:53;;;;;;;0.30;0.30;;;19.80;99.90;;;;;;5116054;28;19970;-77
2023/08/25 00:59:19;;;;;;;0.30;0.30;;;19.70;99.90;;;;;;5116179;28;20476;-77
2023/08/25 01:01:48;;;;;;;1.05;0.95;;;19.70;99.90;;;;;;5115977;28;20047;-76
2023/08/25 01:04:13;;;;;;;0.55;0.45;;;19.70;99.90;;;;;;5115832;28;20086;-76
2023/08/25 01:06:39;;;;;;;0.50;0.50;;;19.70;99.90;;;;;;5116036;28;20079;-77
2023/08/25 01:09:07;;;;;;;0.40;0.40;;;19.60;99.90;;;;;;5115954;28;20112;-76
2023/08/25 01:11:51;;;;;;;0.43;0.43;;;19.60;99.90;;;;;;5115621;28;20077;-76
2023/08/25 01:14:26;;;;;;;0.40;0.40;;;19.60;99.90;;;;;;5116153;28;20128;-77
2023/08/25 01:17:04;;;;;;;0.30;0.30;;;19.60;99.90;;;;;;5115091;28;20051;-79
2023/08/25 01:19:52;;;;;;;0.30;0.30;;;19.70;99.90;;;;;;5114460;28;20042;-78
2023/08/25 01:22:41;;;;;;;0.30;0.30;;;19.70;99.90;;;;;;5113477;28;20094;-77
2023/08/25 01:25:30;;;;;;;0.30;0.30;;;19.70;99.90;;;;;;5114263;28;20039;-76
2023/08/25 01:27:59;;;;;;;0.30;0.30;;;19.70;99.90;;;;;;5114162;28;20584;-76
2023/08/25 01:30:26;;;;;;;0.30;0.30;;;19.70;99.90;;;;;;5114480;28;20128;-77
2023/08/25 01:32:52;;;;;;;0.32;0.32;;;19.70;99.90;;;;;;5114470;28;20044;-75
2023/08/25 01:35:30;;;;;;;0.50;0.50;;;19.70;99.90;;;;;;5114505;28;20036;-77
2023/08/25 01:38:06;;;;;;;0.30;0.30;;;19.70;99.90;;;;;;5113926;28;20050;-76
2023/08/25 01:40:43;;;;;;;0.32;0.32;;;19.70;99.90;;;;;;5114874;28;20039;-77
2023/08/25 01:43:11;;;;;;;0.68;0.50;;;19.70;99.90;;;;;;5114982;28;20031;-78
2023/08/25 01:45:37;;;;;;;0.20;0.20;;;19.80;99.90;;;;;;5114964;28;20079;-77
2023/08/25 01:48:06;;;;;;;0.40;0.30;;;19.70;99.90;;;;;;5114859;28;20067;-79
2023/08/25 01:50:36;;;;;;;0.25;0.25;;;19.70;99.90;;;;;;5114716;28;20036;-78
2023/08/25 01:53:03;;;;;;;0.32;0.32;;;19.80;99.90;;;;;;5114586;28;20463;-79
2023/08/25 01:55:29;;;;;;;0.60;0.60;;;19.80;99.90;;;;;;5114495;28;20438;-78
2023/08/25 01:57:54;;;;;;;1.17;0.40;;;19.70;99.90;;;;;;5114719;28;20491;-77
2023/08/25 02:00:20;;;;;;;0.40;0.40;;;19.80;99.90;;;;;;5115247;28;20043;-77
2023/08/25 02:02:45;;;;;;;0.33;0.33;;;19.70;99.90;;;;;;5114713;28;20035;-79
2023/08/25 02:05:11;;;;;;;0.50;0.50;;;19.80;99.90;;;;;;5114699;28;20043;-77
2023/08/25 02:07:37;;;;;;;0.37;0.37;;;19.80;99.90;;;;;;5114388;28;20048;-79
2023/08/25 02:10:04;;;;;;;0.50;0.50;;;19.80;99.90;;;;;;5114584;28;20071;-76
2023/08/25 02:12:29;;;;;;;0.95;0.55;;;19.80;99.90;;;;;;5114335;28;20039;-78
2023/08/25 02:14:55;;;;;;;0.57;0.53;;;19.70;99.90;;;;;;5114468;28;20478;-78
2023/08/25 02:17:21;;;;;;;0.97;0.50;;;19.70;99.90;;;;;;5114442;28;20079;-77
2023/08/25 02:19:46;;;;;;;0.40;0.40;;;19.70;99.90;;;;;;5114354;28;20032;-78
2023/08/25 02:22:12;;;;;;;0.80;0.40;;;19.70;99.90;;;;;;5114523;28;20495;-77
2023/08/25 02:24:38;;;;;;;1.20;0.30;;;19.70;99.90;;;;;;5114389;28;20039;-80
2023/08/25 02:27:04;;;;;;;0.53;0.53;;;19.70;99.90;;;;;;5095832;28;20120;-78
2023/08/25 02:29:29;;;;;;;0.40;0.40;;;19.60;99.90;;;;;;5114283;28;20508;-78
2023/08/25 02:31:55;;;;;;;0.70;0.70;;;19.60;99.90;;;;;;5114254;28;20047;-76
2023/08/25 02:34:22;;;;;;;0.40;0.40;;;19.60;99.90;;;;;;5113958;28;20122;-80
2023/08/25 02:36:47;;;;;;;0.30;0.30;;;19.60;99.90;;;;;;5113957;28;20483;-79
2023/08/25 02:39:13;;;;;;;0.30;0.30;;;19.60;99.90;;;;;;5095831;28;20046;-78
2023/08/25 02:41:39;;;;;;;0.30;0.30;;;19.50;99.90;;;;;;5114093;28;20461;-77
2023/08/25 02:44:04;;;;;;;0.30;0.30;;;19.50;99.90;;;;;;5114620;28;20044;-79
2023/08/25 02:46:30;;;;;;;0.40;0.40;;;19.40;99.90;;;;;;5114352;28;20048;-76
2023/08/25 02:48:56;;;;;;;0.57;0.47;;;19.50;99.90;;;;;;5114519;28;20479;-77
2023/08/25 02:51:21;;;;;;;0.83;0.40;;;19.50;99.90;;;;;;5113856;28;20047;-78
2023/08/25 02:53:47;;;;;;;0.40;0.40;;;19.50;99.90;;;;;;5113908;28;20445;-78
2023/08/25 02:56:13;;;;;;;0.33;0.33;;;19.50;99.90;;;;;;5113990;28;20056;-78
2023/08/25 02:58:38;;;;;;;0.50;0.50;;;19.50;99.90;;;;;;5113887;28;20432;-77
2023/08/25 03:01:11;;;;;;;0.40;0.40;;;19.40;99.90;;;;;;5113841;28;20051;-78
2023/08/25 03:03:37;;;;;;;0.47;0.45;;;19.40;99.90;;;;;;5113947;28;20036;-79
2023/08/25 03:06:03;;;;;;;1.50;0.40;;;19.40;99.90;;;;;;5113846;28;20044;-78
2023/08/25 03:08:28;;;;;;;0.40;0.33;;;19.30;99.90;;;;;;5113861;28;20044;-76
2023/08/25 03:10:54;;;;;;;0.50;0.43;;;19.30;99.90;;;;;;5113671;28;20044;-79
2023/08/25 03:13:20;;;;;;;0.50;0.50;;;19.20;99.90;;;;;;5113740;28;20083;-76
2023/08/25 03:15:48;;;;;;;0.63;0.63;;;19.20;99.90;;;;;;5113631;28;20039;-79
2023/08/25 03:18:14;;;;;;;0.52;0.52;;;19.20;99.90;;;;;;5113900;28;20056;-76
2023/08/25 03:20:40;;;;;;;0.30;0.30;;;19.20;99.90;;;;;;5113593;28;20092;-79
2023/08/25 03:23:06;;;;;;;0.57;0.57;;;19.20;99.90;;;;;;5113596;28;20040;-79
2023/08/25 03:25:31;;;;;;;0.83;0.67;;;19.10;99.90;;;;;;5113562;28;20031;-77
2023/08/25 03:28:00;;;;;;;0.30;0.30;;;19.10;99.90;;;;;;5114040;28;20035;-76
2023/08/25 03:30:26;;;;;;;0.47;0.47;;;19.10;99.90;;;;;;5113891;28;20087;-77
2023/08/25 03:32:51;;;;;;;0.40;0.40;;;19.10;99.90;;;;;;5113291;28;20075;-77
2023/08/25 03:35:17;;;;;;;0.40;0.40;;;19.00;99.90;;;;;;5113439;28;20085;-76
2023/08/25 03:37:43;;;;;;;0.40;0.40;;;19.00;99.90;;;;;;5113445;28;20499;-77
2023/08/25 03:40:10;;;;;;;0.97;0.80;;;19.00;99.90;;;;;;5113341;28;20043;-77
2023/08/25 03:42:35;;;;;;;0.65;0.50;;;19.00;99.90;;;;;;5113385;28;20445;-77
2023/08/25 03:45:01;;;;;;;0.30;0.30;;;19.00;99.90;;;;;;5113484;28;20035;-77
2023/08/25 03:47:27;;;;;;;0.40;0.37;;;18.90;99.90;;;;;;5113385;28;20084;-78
2023/08/25 03:49:52;;;;;;;0.50;0.50;;;18.90;99.90;;;;;;5113575;28;20408;-76
2023/08/25 03:52:18;;;;;;;1.30;0.63;;;18.90;99.90;;;;;;5113429;28;20128;-79
2023/08/25 03:54:44;;;;;;;1.07;0.80;;;18.90;99.90;;;;;;5094811;28;20055;-78
2023/08/25 03:57:10;;;;;;;0.70;0.63;;;18.80;99.90;;;;;;5113205;28;20051;-78
2023/08/25 03:59:36;;;;;;;0.50;0.50;;;18.80;99.90;;;;;;5113284;28;20079;-79
2023/08/25 04:02:03;;;;;;;0.40;0.40;;;18.80;99.90;;;;;;5114353;28;20126;-79
2023/08/25 04:04:31;;;;;;;0.60;0.50;;;18.80;99.90;;;;;;5116914;28;20533;-78
2023/08/25 04:06:57;;;;;;;0.40;0.40;;;18.80;99.90;;;;;;5116992;28;20101;-79
2023/08/25 04:09:22;;;;;;;0.60;0.40;;;18.80;99.90;;;;;;5115533;28;20496;-76
2023/08/25 04:11:48;;;;;;;0.47;0.47;;;18.70;99.90;;;;;;5116261;28;20086;-78
2023/08/25 04:14:14;;;;;;;0.70;0.50;;;18.70;99.90;;;;;;5116845;28;20069;-77
2023/08/25 04:16:40;;;;;;;0.50;0.50;;;18.70;99.90;;;;;;5117319;28;20134;-79
2023/08/25 04:19:05;;;;;;;0.40;0.40;;;18.70;99.90;;;;;;5116609;28;20130;-79
2023/08/25 04:21:31;;;;;;;0.50;0.40;;;18.60;99.90;;;;;;5116872;28;20054;-75
2023/08/25 04:23:57;;;;;;;2.10;0.57;;;18.70;99.90;;;;;;5116750;28;20044;-80
2023/08/25 04:26:22;;;;;;;0.73;0.70;;;18.60;99.90;;;;;;5116578;28;20047;-78
2023/08/25 04:28:48;;;;;;;0.73;0.47;;;18.60;99.90;;;;;;5116489;28;20087;-77
2023/08/25 04:31:13;;;;;;;1.23;0.60;;;18.60;99.90;;;;;;5116704;28;20153;-76
2023/08/25 04:33:39;;;;;;;0.40;0.40;;;18.60;99.90;;;;;;5116197;28;20093;-79
2023/08/25 04:36:05;;;;;;;0.53;0.53;;;18.60;99.90;;;;;;5116487;28;20042;-77
2023/08/25 04:38:30;;;;;;;0.90;0.50;;;18.60;99.90;;;;;;5116519;28;20480;-76
2023/08/25 04:40:56;;;;;;;0.57;0.57;;;18.60;99.90;;;;;;5116483;28;20039;-79
2023/08/25 04:43:21;;;;;;;0.50;0.50;;;18.60;99.90;;;;;;5098164;28;20125;-79
2023/08/25 04:45:47;;;;;;;0.60;0.50;;;18.50;99.90;;;;;;5116459;28;20418;-79
2023/08/25 04:48:13;;;;;;;0.70;0.70;;;18.50;99.90;;;;;;5116061;28;20518;-79
2023/08/25 04:50:38;;;;;;;0.60;0.60;;;18.60;99.90;;;;;;5116191;28;20047;-77
2023/08/25 04:53:04;;;;;;;0.73;0.73;;;18.50;99.90;;;;;;5116138;28;20054;-76
2023/08/25 04:55:30;;;;;;;1.07;0.73;;;18.50;99.90;;;;;;5115630;28;20062;-76
2023/08/25 04:57:55;;;;;;;0.63;0.63;;;18.50;99.90;;;;;;5116037;28;20058;-77
2023/08/25 05:00:21;;;;;;;0.63;0.50;;;18.60;99.90;;;;;;5097804;28;20487;-76
2023/08/25 05:02:49;;;;;;;0.50;0.50;;;18.50;99.90;;;;;;5115905;28;20050;-75
2023/08/25 05:05:17;;;;;;;0.43;0.40;;;18.60;99.90;;;;;;5115877;28;20079;-74
2023/08/25 05:07:42;;;;;;;1.05;0.50;;;18.60;99.90;;;;;;5115850;28;20056;-75
2023/08/25 05:10:09;;;;;;;0.60;0.60;;;18.70;99.90;;;;;;5115832;28;20146;-75
2023/08/25 05:12:35;;;;;;;0.52;0.52;;;18.70;99.90;;;;;;5115791;28;20388;-74
2023/08/25 05:15:02;;;;;;;0.65;0.65;;;18.70;99.90;;;;;;5115643;28;20047;-73
2023/08/25 05:17:27;;;;;;;2.70;1.35;;;18.70;99.90;;;;;;5115615;28;20387;-74
2023/08/25 05:19:53;;;;;;;0.77;0.60;;;18.80;99.90;;;;;;5115581;28;20039;-72
2023/08/25 05:22:19;;;;;;;0.30;0.30;;;18.80;99.90;;;;;;5115583;28;20437;-75
2023/08/25 05:24:45;;;;;;;1.73;0.83;;;18.80;99.90;;;;;;5115109;28;20510;-73
2023/08/25 05:27:10;;;;;;;1.38;0.90;;;18.80;99.90;;;;;;5115683;28;20059;-76
2023/08/25 05:29:36;;;;;;;1.23;1.03;;;18.90;99.90;;;;;;5115316;28;20032;-72
2023/08/25 05:32:02;;;;;;;0.70;0.60;;;18.90;99.90;;;;;;5115263;28;20118;-74
2023/08/25 05:34:28;;;;;;;0.52;0.52;;;18.90;99.90;;;;;;5115248;28;20040;-74
2023/08/25 05:36:54;;;;;;;1.38;0.73;;;18.90;99.90;;;;;;5097073;28;20047;-72
2023/08/25 05:39:21;;;;;;;1.70;0.83;;;19.00;99.90;;;;;;5114906;28;20050;-73
2023/08/25 05:41:47;;;;;;;1.85;1.40;;;19.00;99.90;;;;;;5106789;28;20067;-74
2023/08/25 05:44:12;;;;;;;0.73;0.73;;;19.00;99.90;;;;;;5114612;28;20043;-71
2023/08/25 05:46:39;;;;;;;2.37;1.07;;;19.10;99.90;;;;;;5114798;28;20049;-73
2023/08/25 05:49:05;;;;;;;0.50;0.50;;;19.10;99.90;;;;;;5114736;28;20551;-73
2023/08/25 05:51:31;;;;;;;1.30;1.20;;;19.10;99.90;;;;;;5114803;28;20122;-73
2023/08/25 05:53:57;;;;;;;0.73;0.60;;;19.20;99.90;;;;;;5114595;28;20124;-73
2023/08/25 05:56:22;;;;;;;0.60;0.60;;;19.20;99.90;;;;;;5114550;28;20055;-72
2023/08/25 05:58:48;;;;;;;0.70;0.70;;;19.20;99.90;;;;;;5114778;28;20032;-74
2023/08/25 06:01:13;;;;;;;0.40;0.40;;;19.30;99.90;;;;;;5114697;28;20096;-75
2023/08/25 06:03:39;;;;;;;0.63;0.63;;;19.30;99.90;;;;;;5114637;28;20044;-75
2023/08/25 06:06:05;;;;;;;1.33;1.23;;;19.40;99.90;;;;;;5114426;28;20039;-73
2023/08/25 06:08:31;;;;;;;1.03;0.90;;;19.40;99.90;;;;;;5114636;28;20485;-73
2023/08/25 06:10:57;;;;;;;1.30;1.20;;;19.40;99.90;;;;;;5114317;28;20036;-73
2023/08/25 06:13:22;;;;;;;1.47;1.37;;;19.40;99.90;;;;;;5114442;28;20044;-72
2023/08/25 06:15:52;;;;;;;0.87;0.80;;;19.50;99.90;;;;;;5114291;28;20428;-74
2023/08/25 06:18:17;;;;;;;0.90;0.90;;;19.50;99.90;;;;;;5113641;28;20479;-72
2023/08/25 06:20:43;;;;;;;0.73;0.73;;;19.50;99.90;;;;;;5114367;28;20058;-74
2023/08/25 06:23:11;;;;;;;0.67;0.67;;;19.50;99.90;;;;;;5096093;28;20043;-73
2023/08/25 06:25:37;;;;;;;0.88;0.82;;;19.50;99.90;;;;;;5113889;28;20039;-73
2023/08/25 06:28:03;;;;;;;1.83;0.97;;;19.60;99.90;;;;;;5114120;28;20039;-74
2023/08/25 06:30:29;;;;;;;1.30;0.90;;;19.60;99.90;;;;;;5096065;28;20051;-74
2023/08/25 06:32:55;;;;;;;1.55;0.75;;;19.70;99.90;;;;;;5114591;28;20455;-75
2023/08/25 06:35:22;;;;;;;1.13;1.02;;;19.60;99.90;;;;;;5114425;28;20094;-74
2023/08/25 06:37:48;;;;;;;0.63;0.55;;;19.70;99.90;;;;;;5114201;28;20050;-74
2023/08/25 06:40:14;;;;;;;;;;;19.70;99.90;;;;;;5114554;28;20051;-75
2023/08/25 06:42:40;;;;;;;2.50;1.15;;;19.70;99.90;;;;;;5114035;28;19926;-75
2023/08/25 06:45:07;;;;;;;0.40;0.40;;;19.80;99.90;;;;;;5112867;28;20369;-75
2023/08/25 06:47:34;;;;;;;0.70;0.68;;;19.80;99.90;;;;;;5112472;28;20165;-75
2023/08/25 06:50:00;;;;;;;1.10;0.73;;;19.90;99.90;;;;;;5108800;28;20051;-74
2023/08/25 06:52:26;;;;;;;0.65;0.63;;;19.90;99.90;;;;;;5093277;28;20047;-73
2023/08/25 06:54:51;;;;;;;0.73;0.70;;;20.00;99.90;;;;;;5092973;28;20059;-74
2023/08/25 06:57:17;;;;;;;1.03;0.93;;;20.00;99.90;;;;;;5093231;28;20507;-74
2023/08/25 06:59:43;;;;;;;2.87;1.13;;;20.00;99.90;;;;;;5093582;28;20529;-74
2023/08/25 07:02:08;;;;;;;0.80;0.80;;;20.00;99.90;;;;;;5093404;28;20036;-75
2023/08/25 07:04:34;;;;;;;0.50;0.40;;;20.10;99.90;;;;;;5075125;28;20066;-75
2023/08/25 07:07:01;;;;;;;0.70;0.70;;;20.10;99.90;;;;;;5092798;28;20047;-75
2023/08/25 07:09:27;;;;;;;0.45;0.45;;;20.20;99.90;;;;;;5093049;28;20101;-73
2023/08/25 07:11:53;;;;;;;0.85;0.63;;;20.20;99.90;;;;;;5093493;28;20067;-73
2023/08/25 07:14:19;;;;;;;0.80;0.80;;;20.20;99.90;;;;;;5075225;28;20483;-73
2023/08/25 07:16:45;;;;;;;0.80;0.80;;;20.30;99.90;;;;;;5093323;28;20127;-75
2023/08/25 07:19:10;;;;;;;1.33;0.77;;;20.30;99.90;;;;;;5093531;28;20127;-75
2023/08/25 07:21:37;;;;;;;1.23;0.63;;;20.30;99.90;;;;;;5093328;28;20127;-74
2023/08/25 07:24:03;;;;;;;2.67;1.45;;;20.40;99.90;;;;;;5093185;28;20044;-75
